Time;durP1;ratioP1;P1;durP2;ratioP2;P2;SDS_P1;SDS_P2;PMS_P1;PMS_P2;Temp;Humidity;BMP_temperature;BMP_pressure;BME280_temperature;BME280_humidity;BME280_pressure;Samples;Min_cycle;Max_cycle;Signal;HPM_P1;HPM_P2
2021/12/09 00:01:25;;;;;;;9.00;2.17;;;7.00;99.90;;;;;;5049290;28;20068;-75
2021/12/09 00:04:00;;;;;;;11.00;2.92;;;7.00;99.90;;;;;;5052926;28;20432;-75
2021/12/09 00:06:29;;;;;;;11.90;2.95;;;6.90;99.90;;;;;;5055848;28;20041;-75
2021/12/09 00:08:57;;;;;;;4.57;1.50;;;7.00;99.90;;;;;;5057873;28;20017;-75
2021/12/09 00:11:23;;;;;;;6.28;1.80;;;7.00;99.40;;;;;;5058286;28;20253;-74
2021/12/09 00:13:49;;;;;;;3.15;1.48;;;7.00;98.60;;;;;;5054024;28;20021;-74
2021/12/09 00:16:15;;;;;;;3.35;1.60;;;7.00;98.80;;;;;;5049798;28;20029;-75
2021/12/09 00:18:41;;;;;;;4.22;1.45;;;7.00;99.40;;;;;;5054045;28;20405;-75
2021/12/09 00:21:07;;;;;;;3.63;1.48;;;6.90;99.70;;;;;;5055505;28;20080;-76
2021/12/09 00:23:32;;;;;;;2.92;1.25;;;7.00;98.70;;;;;;5059110;28;20057;-75
2021/12/09 00:25:58;;;;;;;3.60;1.27;;;6.90;98.90;;;;;;5054276;28;20033;-75
2021/12/09 00:28:24;;;;;;;2.95;1.33;;;6.90;99.30;;;;;;5048564;28;20052;-75
2021/12/09 00:30:50;;;;;;;2.53;1.20;;;6.90;98.70;;;;;;5052238;28;20485;-74
2021/12/09 00:33:16;;;;;;;2.47;1.00;;;7.00;98.20;;;;;;5053352;28;20122;-75
2021/12/09 00:35:53;;;;;;;2.03;1.02;;;7.00;97.70;;;;;;5050259;28;20044;-75
2021/12/09 00:38:33;;;;;;;2.28;1.05;;;7.10;97.70;;;;;;5058335;28;20033;-75
2021/12/09 00:41:00;;;;;;;2.38;1.30;;;7.00;98.00;;;;;;5060721;28;20037;-75
2021/12/09 00:43:26;;;;;;;2.30;1.10;;;7.00;98.40;;;;;;5052944;28;20044;-75
2021/12/09 00:45:52;;;;;;;3.65;1.20;;;6.90;98.60;;;;;;5054023;28;20031;-74
2021/12/09 00:48:18;;;;;;;3.28;1.33;;;6.80;99.10;;;;;;5051501;28;20025;-75
2021/12/09 00:50:44;;;;;;;2.80;1.40;;;6.70;99.30;;;;;;5059637;28;20025;-74
2021/12/09 00:53:10;;;;;;;2.10;1.00;;;6.70;99.40;;;;;;5057118;28;20035;-75
2021/12/09 00:55:37;;;;;;;2.40;1.10;;;6.70;99.20;;;;;;5055670;28;20028;-74
2021/12/09 00:58:03;;;;;;;2.78;1.20;;;6.70;99.20;;;;;;5054436;28;20116;-74
2021/12/09 01:00:31;;;;;;;2.58;1.25;;;6.70;98.90;;;;;;5051574;28;20480;-74
2021/12/09 01:02:58;;;;;;;1.77;1.10;;;6.70;98.70;;;;;;5055584;28;20374;-75
2021/12/09 01:05:24;;;;;;;3.08;1.30;;;6.70;98.90;;;;;;5058887;28;20497;-75
2021/12/09 01:07:49;;;;;;;2.75;1.30;;;6.70;99.00;;;;;;5056542;28;20060;-75
2021/12/09 01:10:15;;;;;;;3.13;1.25;;;6.70;98.70;;;;;;5055747;28;20439;-74
2021/12/09 01:12:41;;;;;;;1.27;1.17;;;6.70;98.80;;;;;;5047879;28;20516;-74
2021/12/09 01:15:10;;;;;;;2.70;1.23;;;6.70;98.90;;;;;;5055054;28;20029;-74
2021/12/09 01:17:36;;;;;;;2.60;1.20;;;6.70;99.20;;;;;;5058612;28;20033;-75
2021/12/09 01:20:05;;;;;;;3.65;1.50;;;6.70;99.40;;;;;;5053661;28;20086;-74
2021/12/09 01:22:38;;;;;;;2.53;1.52;;;6.70;99.70;;;;;;5048930;28;20021;-75
2021/12/09 01:25:06;;;;;;;3.65;1.50;;;6.60;99.70;;;;;;5051271;28;20041;-75
2021/12/09 01:27:36;;;;;;;1.48;1.17;;;6.50;99.90;;;;;;5053274;28;20525;-75
2021/12/09 01:30:08;;;;;;;2.88;1.42;;;6.40;99.90;;;;;;5055217;28;20076;-75
2021/12/09 01:32:34;;;;;;;1.95;1.23;;;6.50;99.90;;;;;;5057497;28;20028;-75
2021/12/09 01:35:00;;;;;;;1.55;1.20;;;6.50;99.90;;;;;;5052962;28;20521;-76
2021/12/09 01:37:26;;;;;;;2.75;1.50;;;6.40;99.90;;;;;;5048499;28;20396;-75
2021/12/09 01:39:51;;;;;;;2.55;1.15;;;6.40;99.90;;;;;;5052682;28;20060;-75
2021/12/09 01:42:17;;;;;;;2.03;1.20;;;6.30;99.90;;;;;;5052903;28;20033;-74
2021/12/09 01:44:43;;;;;;;3.38;1.30;;;6.40;99.90;;;;;;5056731;28;20112;-75
2021/12/09 01:47:09;;;;;;;2.40;1.25;;;6.40;99.90;;;;;;5053276;28;20027;-74
2021/12/09 01:49:35;;;;;;;2.38;1.10;;;6.40;99.90;;;;;;5052332;28;20033;-75
2021/12/09 01:52:01;;;;;;;3.35;1.20;;;6.40;99.90;;;;;;5060400;28;20027;-75
2021/12/09 01:54:27;;;;;;;1.48;1.00;;;6.30;99.90;;;;;;5054431;28;20404;-74
2021/12/09 01:56:53;;;;;;;2.35;1.20;;;6.10;99.90;;;;;;5060234;28;20021;-74
2021/12/09 01:59:18;;;;;;;1.98;1.10;;;5.90;99.90;;;;;;5057100;28;20111;-74
2021/12/09 02:01:44;;;;;;;2.65;1.35;;;5.80;99.90;;;;;;5059469;28;20112;-74
2021/12/09 02:04:11;;;;;;;2.67;1.40;;;5.80;99.90;;;;;;5056421;28;20051;-75
2021/12/09 02:06:40;;;;;;;3.63;1.42;;;5.60;99.90;;;;;;5053062;28;20037;-74
2021/12/09 02:09:08;;;;;;;5.60;1.75;;;5.40;99.90;;;;;;5058188;28;20468;-74
2021/12/09 02:11:34;;;;;;;4.32;1.70;;;5.40;99.90;;;;;;5057368;28;20073;-75
2021/12/09 02:14:00;;;;;;;4.40;1.80;;;5.50;99.90;;;;;;5058360;28;20024;-75
2021/12/09 02:16:26;;;;;;;4.00;1.75;;;5.50;99.90;;;;;;5055655;28;20116;-75
2021/12/09 02:18:52;;;;;;;3.03;1.98;;;5.50;99.90;;;;;;5051969;28;20025;-75
2021/12/09 02:21:22;;;;;;;3.90;2.15;;;5.40;99.90;;;;;;5055105;28;20051;-75
2021/12/09 02:23:50;;;;;;;3.78;1.48;;;5.30;99.90;;;;;;5057894;28;20397;-74
2021/12/09 02:26:19;;;;;;;3.13;1.48;;;5.20;99.90;;;;;;5056270;28;20076;-75
2021/12/09 02:28:45;;;;;;;3.28;1.40;;;5.20;99.90;;;;;;5057620;28;20028;-75
2021/12/09 02:31:12;;;;;;;3.45;1.70;;;5.00;99.90;;;;;;5053301;28;20059;-74
2021/12/09 02:33:38;;;;;;;3.42;1.75;;;5.00;99.90;;;;;;5051519;28;20026;-75
2021/12/09 02:36:05;;;;;;;4.90;2.10;;;5.00;99.90;;;;;;5057691;28;20112;-74
2021/12/09 02:38:31;;;;;;;3.22;1.80;;;5.10;99.90;;;;;;5048658;28;20033;-75
2021/12/09 02:40:56;;;;;;;3.58;1.80;;;5.10;99.90;;;;;;5055774;28;20477;-75
2021/12/09 02:43:28;;;;;;;3.45;1.55;;;5.20;99.90;;;;;;5054343;28;20070;-75
2021/12/09 02:45:55;;;;;;;3.72;1.70;;;5.40;99.90;;;;;;5050717;28;20024;-75
2021/12/09 02:48:22;;;;;;;3.45;1.70;;;5.50;99.90;;;;;;5053490;28;20021;-75
2021/12/09 02:50:49;;;;;;;2.50;1.58;;;5.40;99.90;;;;;;5057406;28;20033;-75
2021/12/09 02:53:16;;;;;;;3.30;1.50;;;5.30;99.90;;;;;;5055286;28;20022;-75
2021/12/09 02:55:43;;;;;;;3.38;1.40;;;5.20;99.90;;;;;;5056025;28;20064;-75
2021/12/09 02:58:08;;;;;;;4.53;1.48;;;5.20;99.90;;;;;;5051831;28;20029;-75
2021/12/09 03:00:49;;;;;;;2.90;1.40;;;5.10;99.90;;;;;;5049716;28;20048;-75
2021/12/09 03:03:14;;;;;;;2.50;1.50;;;5.10;99.90;;;;;;5054950;28;20067;-75
2021/12/09 03:05:42;;;;;;;3.67;1.90;;;5.10;99.90;;;;;;5054962;28;20488;-74
2021/12/09 03:08:08;;;;;;;3.30;1.58;;;5.00;99.90;;;;;;5052465;28;20041;-74
2021/12/09 03:10:34;;;;;;;1.88;1.40;;;5.00;99.90;;;;;;5046385;28;20033;-75
2021/12/09 03:13:01;;;;;;;2.35;1.10;;;4.90;99.90;;;;;;5043380;28;20086;-74
2021/12/09 03:15:27;;;;;;;2.28;1.35;;;4.80;99.90;;;;;;5055171;28;20064;-74
2021/12/09 03:17:53;;;;;;;2.58;1.25;;;4.80;99.90;;;;;;5055986;28;20449;-75
2021/12/09 03:20:20;;;;;;;1.73;1.10;;;4.80;99.90;;;;;;5054979;28;20045;-74
2021/12/09 03:22:48;;;;;;;1.33;1.00;;;4.80;99.90;;;;;;5050865;28;20025;-74
2021/12/09 03:25:15;;;;;;;2.13;1.40;;;4.80;99.90;;;;;;5051305;28;20037;-75
2021/12/09 03:27:41;;;;;;;1.50;1.20;;;4.80;99.90;;;;;;5052305;28;20120;-75
2021/12/09 03:30:10;;;;;;;2.38;1.13;;;4.80;99.90;;;;;;5059005;28;20040;-74
2021/12/09 03:32:35;;;;;;;3.25;1.30;;;4.80;99.90;;;;;;5056491;28;20028;-75
2021/12/09 03:35:02;;;;;;;2.03;1.20;;;4.80;99.90;;;;;;5058961;28;20028;-75
2021/12/09 03:37:28;;;;;;;2.63;1.20;;;4.70;99.90;;;;;;5054754;28;20021;-74
2021/12/09 03:39:55;;;;;;;2.95;1.60;;;4.60;99.90;;;;;;5051040;28;20446;-74
2021/12/09 03:42:23;;;;;;;3.78;1.40;;;4.60;99.90;;;;;;5055607;28;20056;-74
2021/12/09 03:44:51;;;;;;;2.22;1.30;;;4.50;99.90;;;;;;5057199;28;20034;-75
2021/12/09 03:47:21;;;;;;;3.28;1.48;;;4.50;99.90;;;;;;5057403;28;20104;-75
2021/12/09 03:49:47;;;;;;;3.25;1.50;;;4.50;99.90;;;;;;5064542;28;20021;-75
2021/12/09 03:52:14;;;;;;;2.28;1.40;;;4.40;99.90;;;;;;5058059;28;20455;-74
2021/12/09 03:54:41;;;;;;;3.60;1.58;;;4.40;99.90;;;;;;5058857;28;20022;-75
2021/12/09 03:57:08;;;;;;;3.63;1.60;;;4.40;99.90;;;;;;5046312;28;20698;-74
2021/12/09 03:59:34;;;;;;;3.22;1.52;;;4.40;99.90;;;;;;5060098;28;20121;-74
2021/12/09 04:02:00;;;;;;;4.68;1.73;;;4.40;99.90;;;;;;5065535;28;20453;-74
2021/12/09 04:04:26;;;;;;;3.85;1.70;;;4.30;99.90;;;;;;5061077;28;20066;-74
2021/12/09 04:06:52;;;;;;;2.40;1.77;;;4.30;99.90;;;;;;5057485;28;20048;-75
2021/12/09 04:09:22;;;;;;;3.33;1.75;;;4.30;99.90;;;;;;5060974;28;20500;-75
2021/12/09 04:11:48;;;;;;;6.20;1.90;;;4.30;99.90;;;;;;5059314;28;20051;-75
2021/12/09 04:14:14;;;;;;;3.33;1.70;;;4.50;99.90;;;;;;5064131;28;20512;-74
2021/12/09 04:16:40;;;;;;;4.57;1.85;;;4.60;99.90;;;;;;5062433;28;20040;-74
2021/12/09 04:19:08;;;;;;;4.65;1.80;;;4.60;99.90;;;;;;5056956;28;20027;-74
2021/12/09 04:21:35;;;;;;;3.53;1.70;;;4.60;99.90;;;;;;5057921;28;20132;-74
2021/12/09 04:24:07;;;;;;;3.03;1.70;;;4.50;99.90;;;;;;5055672;28;20022;-74
2021/12/09 04:26:34;;;;;;;3.95;1.30;;;4.60;99.90;;;;;;5054211;28;20068;-75
2021/12/09 04:29:00;;;;;;;4.95;1.40;;;4.50;99.90;;;;;;5057743;28;20028;-74
2021/12/09 04:31:27;;;;;;;3.22;1.60;;;4.60;99.90;;;;;;5053920;28;20070;-74
2021/12/09 04:33:52;;;;;;;2.55;1.77;;;4.60;99.90;;;;;;5056111;28;20029;-74
2021/12/09 04:36:21;;;;;;;4.35;1.50;;;4.60;99.90;;;;;;5055571;28;20549;-74
2021/12/09 04:38:48;;;;;;;4.85;2.40;;;4.70;99.90;;;;;;5052005;28;20025;-75
2021/12/09 04:41:15;;;;;;;8.73;3.28;;;4.60;99.90;;;;;;5059068;28;20055;-75
2021/12/09 04:43:42;;;;;;;7.28;2.75;;;4.60;99.90;;;;;;5052745;28;20128;-74
2021/12/09 04:46:11;;;;;;;4.15;1.80;;;4.60;99.90;;;;;;5055296;28;20119;-75
2021/12/09 04:48:38;;;;;;;7.50;2.28;;;4.60;99.90;;;;;;5054868;28;20027;-75
2021/12/09 04:51:04;;;;;;;2.75;1.50;;;4.60;99.90;;;;;;5053811;28;20140;-75
2021/12/09 04:53:30;;;;;;;2.42;1.30;;;4.60;99.90;;;;;;5054870;28;20507;-75
2021/12/09 04:55:56;;;;;;;3.67;1.50;;;4.50;99.90;;;;;;5054721;28;20039;-75
2021/12/09 04:58:23;;;;;;;2.45;1.30;;;4.40;99.90;;;;;;5053233;28;20029;-74
2021/12/09 05:00:50;;;;;;;3.47;1.30;;;4.30;99.90;;;;;;5053988;28;20043;-75
2021/12/09 05:03:17;;;;;;;2.92;1.52;;;4.20;99.90;;;;;;5042582;28;20063;-75
2021/12/09 05:05:46;;;;;;;5.20;1.60;;;4.30;99.90;;;;;;5057398;28;20041;-75
2021/12/09 05:08:16;;;;;;;3.83;1.88;;;4.30;99.90;;;;;;5061367;28;20063;-74
2021/12/09 05:13:27;;;;;;;6.13;2.00;;;4.30;99.90;;;;;;5054194;28;20028;-74
2021/12/09 05:15:55;;;;;;;3.63;1.50;;;4.20;99.90;;;;;;5052802;28;20025;-74
2021/12/09 05:18:22;;;;;;;3.53;1.73;;;4.30;99.90;;;;;;5057726;28;20047;-74
2021/12/09 05:20:48;;;;;;;3.25;1.50;;;4.20;99.90;;;;;;5056394;28;20044;-74
2021/12/09 05:23:15;;;;;;;3.72;1.70;;;4.20;99.90;;;;;;5062562;28;20029;-75
2021/12/09 05:25:42;;;;;;;4.82;1.63;;;4.20;99.90;;;;;;5058673;28;20059;-75
2021/12/09 05:28:09;;;;;;;3.53;1.70;;;4.10;99.90;;;;;;5053320;28;20028;-75
2021/12/09 05:32:07;;;;;;;6.03;1.90;;;4.20;99.90;;;;;;5055843;28;20063;-74
2021/12/09 05:33:24;;;;;;;7.45;2.65;;;4.20;99.90;;;;;;5041961;28;20377;-75
2021/12/09 05:35:49;;;;;;;9.52;4.22;;;4.30;99.90;;;;;;5055444;28;20056;-75
2021/12/09 05:38:15;;;;;;;9.30;4.78;;;4.20;99.90;;;;;;5054937;28;20027;-75
2021/12/09 05:40:41;;;;;;;9.15;4.50;;;4.20;99.90;;;;;;5049944;28;20125;-74
2021/12/09 05:43:06;;;;;;;7.10;3.67;;;4.20;99.90;;;;;;5050149;28;20060;-75
2021/12/09 05:45:32;;;;;;;6.90;3.85;;;4.20;99.90;;;;;;5050177;28;20029;-75
2021/12/09 05:47:58;;;;;;;6.15;2.42;;;4.20;99.90;;;;;;5047963;28;20026;-75
2021/12/09 05:50:23;;;;;;;6.05;2.53;;;4.20;99.90;;;;;;5054311;28;20028;-76
2021/12/09 05:52:49;;;;;;;5.10;1.90;;;4.20;99.90;;;;;;5051716;28;20017;-74
2021/12/09 05:55:15;;;;;;;5.65;1.67;;;4.10;99.90;;;;;;5049619;28;20040;-73
2021/12/09 05:57:41;;;;;;;5.35;2.00;;;4.10;99.90;;;;;;5048337;28;20029;-74
2021/12/09 06:00:08;;;;;;;6.25;1.80;;;4.10;99.90;;;;;;5048244;28;20038;-73
2021/12/09 06:02:35;;;;;;;5.68;2.30;;;4.00;99.90;;;;;;5050750;28;20022;-73
2021/12/09 06:05:03;;;;;;;5.20;2.13;;;4.00;99.90;;;;;;5050481;28;20036;-74
2021/12/09 06:07:29;;;;;;;5.10;2.30;;;3.90;99.90;;;;;;5048084;28;20040;-73
2021/12/09 06:09:55;;;;;;;5.15;2.42;;;3.90;99.90;;;;;;5047205;28;20486;-73
2021/12/09 06:12:22;;;;;;;6.80;2.58;;;3.90;99.90;;;;;;5053946;28;20096;-73
2021/12/09 06:14:47;;;;;;;5.53;2.38;;;3.90;99.90;;;;;;5055387;28;20490;-73
2021/12/09 06:17:13;;;;;;;6.20;2.55;;;3.90;99.90;;;;;;5050748;28;20050;-74
2021/12/09 06:19:39;;;;;;;5.82;2.70;;;3.90;99.90;;;;;;5051443;28;20025;-74
2021/12/09 06:22:05;;;;;;;7.25;3.08;;;3.80;99.90;;;;;;5048444;28;20037;-74
2021/12/09 06:24:30;;;;;;;7.55;3.13;;;3.80;99.90;;;;;;5052556;28;20108;-73
2021/12/09 06:26:58;;;;;;;7.78;2.85;;;3.80;99.90;;;;;;5053767;28;20072;-74
2021/12/09 06:29:24;;;;;;;5.97;2.78;;;3.80;99.90;;;;;;5058094;28;20052;-74
2021/12/09 06:31:49;;;;;;;5.65;2.50;;;3.90;99.90;;;;;;5052529;28;20496;-74
2021/12/09 06:34:15;;;;;;;5.10;2.75;;;3.90;99.90;;;;;;5048171;28;20086;-74
2021/12/09 06:36:42;;;;;;;6.40;2.30;;;3.90;99.90;;;;;;5051642;28;20028;-74
2021/12/09 06:39:08;;;;;;;5.53;2.53;;;3.90;99.90;;;;;;5053266;28;20100;-74
2021/12/09 06:41:34;;;;;;;5.63;2.58;;;4.00;99.90;;;;;;5057619;28;20474;-74
2021/12/09 06:44:00;;;;;;;8.05;2.75;;;4.00;99.90;;;;;;5054136;28;20013;-74
2021/12/09 06:46:26;;;;;;;8.75;2.95;;;3.90;99.90;;;;;;5047191;28;20036;-74
2021/12/09 06:48:52;;;;;;;4.63;2.58;;;3.90;99.90;;;;;;5053183;28;20017;-74
2021/12/09 06:51:18;;;;;;;7.30;3.03;;;3.80;99.90;;;;;;5057011;28;20101;-74
2021/12/09 06:53:44;;;;;;;5.85;2.95;;;3.80;99.90;;;;;;5059816;28;20037;-74
2021/12/09 06:56:09;;;;;;;8.27;2.97;;;3.80;99.90;;;;;;5061211;28;20017;-74
2021/12/09 06:58:35;;;;;;;5.55;2.95;;;3.80;99.90;;;;;;5055705;28;20025;-73
2021/12/09 07:01:02;;;;;;;6.78;2.20;;;3.80;99.90;;;;;;5053005;28;20496;-74
2021/12/09 07:03:29;;;;;;;8.40;2.95;;;3.90;99.90;;;;;;5056715;28;20397;-74
2021/12/09 07:05:56;;;;;;;4.72;2.47;;;3.90;99.90;;;;;;5058114;28;20044;-74
2021/12/09 07:08:22;;;;;;;6.10;2.95;;;3.90;99.90;;;;;;5061410;28;20032;-74
2021/12/09 07:10:48;;;;;;;8.18;3.10;;;4.00;99.90;;;;;;5055325;28;20065;-74
2021/12/09 07:13:14;;;;;;;8.10;3.42;;;4.10;99.90;;;;;;5051577;28;20041;-74
2021/12/09 07:15:40;;;;;;;8.85;3.30;;;4.20;99.90;;;;;;5055182;28;20036;-74
2021/12/09 07:18:06;;;;;;;7.63;3.10;;;4.30;99.90;;;;;;5058752;28;20413;-74
2021/12/09 07:20:33;;;;;;;6.00;3.13;;;4.20;99.90;;;;;;5061178;28;20065;-74
2021/12/09 07:23:00;;;;;;;6.25;2.97;;;4.20;99.90;;;;;;5057182;28;20016;-74
2021/12/09 07:25:27;;;;;;;6.57;3.03;;;4.20;99.90;;;;;;5050652;28;20122;-74
2021/12/09 07:27:53;;;;;;;6.18;2.58;;;4.20;99.90;;;;;;5051830;28;20076;-74
2021/12/09 07:30:21;;;;;;;10.15;3.40;;;4.10;99.90;;;;;;5054314;28;20405;-74
2021/12/09 07:32:48;;;;;;;6.18;2.78;;;4.10;99.90;;;;;;5051199;28;20078;-74
2021/12/09 07:35:15;;;;;;;9.80;3.50;;;4.10;99.90;;;;;;5050549;28;20032;-74
2021/12/09 07:37:43;;;;;;;9.57;3.50;;;4.10;99.90;;;;;;5052001;28;20017;-74
2021/12/09 07:40:12;;;;;;;5.40;2.53;;;4.10;99.90;;;;;;5047635;28;20489;-74
2021/12/09 07:42:38;;;;;;;7.20;2.92;;;4.20;99.90;;;;;;5046795;28;20548;-74
2021/12/09 07:45:06;;;;;;;11.40;2.55;;;4.30;99.90;;;;;;5048138;28;20124;-74
2021/12/09 07:47:32;;;;;;;3.80;1.92;;;4.30;99.90;;;;;;5051426;28;20104;-74
2021/12/09 07:49:57;;;;;;;5.38;2.30;;;4.30;99.90;;;;;;5043535;28;20917;-74
2021/12/09 07:52:23;;;;;;;10.75;2.30;;;4.30;99.90;;;;;;5046992;28;20079;-74
2021/12/09 07:54:49;;;;;;;8.68;2.83;;;4.40;99.90;;;;;;5054329;28;20033;-74
2021/12/09 07:57:15;;;;;;;6.68;3.03;;;4.40;99.90;;;;;;5052271;28;20060;-74
2021/12/09 07:59:41;;;;;;;9.30;3.78;;;4.40;99.90;;;;;;5055196;28;20025;-74
2021/12/09 08:02:07;;;;;;;10.88;3.15;;;4.40;99.90;;;;;;5056120;28;20032;-74
2021/12/09 08:04:33;;;;;;;10.38;3.28;;;4.60;99.90;;;;;;5050998;28;20055;-74
2021/12/09 08:07:00;;;;;;;18.55;3.60;;;4.80;99.90;;;;;;5050901;28;20112;-75
2021/12/09 08:09:27;;;;;;;8.75;3.78;;;5.00;99.90;;;;;;5055748;28;20044;-74
2021/12/09 08:11:53;;;;;;;10.07;4.10;;;5.30;99.90;;;;;;5056139;28;20072;-74
2021/12/09 08:14:20;;;;;;;8.60;3.58;;;5.60;99.90;;;;;;5055647;28;20054;-74
2021/12/09 08:16:56;;;;;;;9.73;3.40;;;5.90;99.90;;;;;;5052668;28;20020;-74
2021/12/09 08:19:21;;;;;;;9.50;3.88;;;6.40;98.40;;;;;;5050032;28;20047;-75
2021/12/09 08:21:47;;;;;;;8.27;3.60;;;7.00;97.80;;;;;;5051080;28;20107;-74
2021/12/09 08:24:13;;;;;;;9.27;3.65;;;7.80;96.40;;;;;;5051975;28;20235;-75
2021/12/09 08:26:39;;;;;;;13.50;5.93;;;9.30;93.10;;;;;;5002997;28;1499474;-74
2021/12/09 08:29:05;;;;;;;11.05;4.30;;;12.20;85.40;;;;;;5051901;28;20035;-74
2021/12/09 08:31:33;;;;;;;11.65;4.18;;;14.70;72.30;;;;;;5046869;28;20409;-75
2021/12/09 08:34:02;;;;;;;11.27;4.13;;;16.50;64.20;;;;;;5049407;28;20084;-75
2021/12/09 08:36:28;;;;;;;10.23;3.83;;;17.40;61.10;;;;;;5051999;28;20029;-75
2021/12/09 08:38:54;;;;;;;10.88;3.67;;;16.90;58.30;;;;;;5055115;28;20025;-75
2021/12/09 08:41:21;;;;;;;11.23;3.28;;;15.60;59.40;;;;;;5051465;28;20045;-75
2021/12/09 08:43:47;;;;;;;9.07;3.53;;;15.10;60.40;;;;;;5048112;28;20396;-75
2021/12/09 08:46:15;;;;;;;15.02;8.25;;;13.90;63.60;;;;;;5046882;28;20025;-75
2021/12/09 08:48:41;;;;;;;59.03;28.35;;;12.40;65.20;;;;;;5052932;28;20016;-75
2021/12/09 08:51:07;;;;;;;14.23;6.15;;;11.70;68.00;;;;;;5051649;28;20036;-75
2021/12/09 08:53:34;;;;;;;9.32;2.80;;;12.70;65.80;;;;;;5055739;28;20425;-75
2021/12/09 08:56:00;;;;;;;7.63;2.80;;;13.10;64.10;;;;;;5051645;28;20409;-75
2021/12/09 08:58:28;;;;;;;8.63;2.88;;;12.40;66.40;;;;;;5050413;28;20412;-75
2021/12/09 09:00:56;;;;;;;10.55;3.67;;;11.60;69.60;;;;;;5047408;28;20045;-75
2021/12/09 09:03:23;;;;;;;7.63;3.30;;;10.80;72.10;;;;;;5046820;28;20025;-75
2021/12/09 09:05:50;;;;;;;9.05;3.30;;;10.70;73.20;;;;;;5037956;28;20508;-74
2021/12/09 09:08:16;;;;;;;8.75;3.00;;;10.70;74.10;;;;;;5050385;28;20439;-75
2021/12/09 09:10:43;;;;;;;9.15;3.78;;;10.70;74.40;;;;;;5044698;28;20028;-75
2021/12/09 09:13:10;;;;;;;9.20;3.00;;;10.90;74.60;;;;;;5045706;28;20033;-74
2021/12/09 09:15:36;;;;;;;6.60;3.00;;;11.40;73.20;;;;;;5054969;28;20401;-75
2021/12/09 09:18:02;;;;;;;9.05;3.15;;;11.70;71.70;;;;;;5057310;28;20037;-75
2021/12/09 09:20:30;;;;;;;6.40;2.58;;;11.70;71.90;;;;;;5052717;28;20494;-74
2021/12/09 09:22:56;;;;;;;9.90;4.00;;;11.90;72.70;;;;;;5052967;28;20048;-74
2021/12/09 09:25:29;;;;;;;6.30;3.38;;;12.10;70.70;;;;;;5050694;28;20056;-74
2021/12/09 09:27:56;;;;;;;7.95;2.28;;;12.30;70.20;;;;;;5046277;28;20068;-74
2021/12/09 09:30:22;;;;;;;9.77;2.47;;;12.50;71.60;;;;;;5049333;28;20044;-74
2021/12/09 09:32:50;;;;;;;8.30;2.17;;;12.50;70.10;;;;;;5057489;28;20036;-74
2021/12/09 09:35:17;;;;;;;5.15;2.03;;;12.50;69.60;;;;;;5054697;28;20037;-75
2021/12/09 09:37:43;;;;;;;6.45;1.77;;;12.60;68.60;;;;;;5055773;28;20017;-75
2021/12/09 09:40:12;;;;;;;6.82;2.33;;;12.70;68.40;;;;;;5052685;28;20047;-75
2021/12/09 09:45:11;;;;;;;7.53;1.60;;;12.60;68.10;;;;;;5056344;28;20025;-75
2021/12/09 09:47:38;;;;;;;5.10;1.77;;;12.60;68.80;;;;;;5054746;28;20095;-76
2021/12/09 09:50:07;;;;;;;4.47;1.23;;;12.60;68.60;;;;;;5054992;28;20025;-76
2021/12/09 09:52:33;;;;;;;3.20;1.00;;;12.50;68.40;;;;;;5055343;28;20021;-75
2021/12/09 09:55:01;;;;;;;6.20;1.50;;;12.60;68.70;;;;;;5050816;28;20040;-76
2021/12/09 09:57:27;;;;;;;6.20;1.30;;;12.70;67.60;;;;;;5047805;28;20040;-76
2021/12/09 09:59:54;;;;;;;4.90;1.40;;;12.70;67.40;;;;;;5048731;28;20050;-76
2021/12/09 10:02:20;;;;;;;5.35;1.48;;;12.70;68.70;;;;;;5053965;28;20074;-76
2021/12/09 10:04:57;;;;;;;4.03;1.10;;;12.70;68.20;;;;;;5046957;28;20029;-76
2021/12/09 10:07:24;;;;;;;5.30;1.40;;;12.70;66.90;;;;;;5048181;28;20090;-76
2021/12/09 10:09:51;;;;;;;4.40;1.38;;;12.70;66.70;;;;;;5051229;28;20040;-76
2021/12/09 10:12:18;;;;;;;4.90;1.10;;;12.80;66.50;;;;;;5053477;28;20841;-76
2021/12/09 10:14:50;;;;;;;4.88;1.05;;;12.80;66.40;;;;;;5050555;28;20091;-76
2021/12/09 10:17:20;;;;;;;3.38;1.38;;;12.80;67.70;;;;;;5050110;28;20029;-76
2021/12/09 10:20:04;;;;;;;3.67;1.00;;;12.70;67.50;;;;;;5046973;28;20072;-76
2021/12/09 10:22:34;;;;;;;;;;;12.70;66.80;;;;;;5046069;28;20048;-76
2021/12/09 10:25:03;;;;;;;6.53;1.55;;;12.70;66.20;;;;;;5044390;28;19913;-76
2021/12/09 10:27:34;;;;;;;4.15;1.23;;;12.70;67.20;;;;;;5049187;28;20080;-76
2021/12/09 10:30:17;;;;;;;4.90;1.27;;;12.70;66.20;;;;;;5053079;28;20036;-76
2021/12/09 10:32:44;;;;;;;2.80;1.08;;;12.70;66.20;;;;;;5050154;28;20021;-77
2021/12/09 10:35:19;;;;;;;3.95;1.33;;;12.80;65.40;;;;;;5049302;28;20055;-76
2021/12/09 10:37:47;;;;;;;3.17;1.10;;;12.90;64.30;;;;;;5044959;28;20531;-76
2021/12/09 10:40:30;;;;;;;6.97;1.80;;;13.00;64.90;;;;;;5050621;28;20037;-75
2021/12/09 10:43:01;;;;;;;6.63;1.42;;;13.00;64.40;;;;;;5052008;28;20124;-77
2021/12/09 10:45:32;;;;;;;7.65;1.95;;;13.20;64.50;;;;;;5050435;28;20413;-77
2021/12/09 10:48:03;;;;;;;3.72;1.40;;;13.30;64.90;;;;;;5055301;28;20040;-76
2021/12/09 10:50:53;;;;;;;10.13;4.00;;;13.40;62.80;;;;;;5051300;28;20021;-76
2021/12/09 10:55:52;;;;;;;8.20;2.72;;;13.60;63.40;;;;;;5052813;28;20437;-76
2021/12/09 10:58:22;;;;;;;12.55;4.15;;;13.80;64.60;;;;;;5049448;28;20064;-76
2021/12/09 11:00:58;;;;;;;5.25;1.98;;;13.80;62.10;;;;;;5046560;28;20072;-76
2021/12/09 11:03:32;;;;;;;3.05;1.20;;;13.90;61.30;;;;;;5051449;28;20033;-76
2021/12/09 11:06:02;;;;;;;4.63;1.55;;;13.80;61.50;;;;;;5048498;28;20230;-76
2021/12/09 11:08:36;;;;;;;3.15;0.93;;;13.90;61.90;;;;;;5047295;28;20021;-76
2021/12/09 11:11:10;;;;;;;4.30;1.10;;;14.00;61.20;;;;;;5046689;28;20059;-76
2021/12/09 11:13:40;;;;;;;5.15;1.05;;;14.10;60.80;;;;;;5043041;28;20120;-76
2021/12/09 11:16:07;;;;;;;3.83;1.10;;;14.30;61.00;;;;;;5053781;28;20044;-76
2021/12/09 11:18:38;;;;;;;4.72;1.20;;;14.40;62.10;;;;;;5051612;28;20052;-76
2021/12/09 11:21:29;;;;;;;5.35;1.52;;;14.50;60.70;;;;;;5053362;28;20056;-76
2021/12/09 11:24:13;;;;;;;4.45;1.40;;;14.50;60.20;;;;;;5050202;28;20052;-76
2021/12/09 11:26:58;;;;;;;4.28;1.05;;;14.50;58.80;;;;;;5046544;28;20174;-77
2021/12/09 11:29:37;;;;;;;5.00;1.05;;;14.80;60.40;;;;;;5049958;28;20835;-76
2021/12/09 11:32:16;;;;;;;3.53;1.20;;;15.10;60.20;;;;;;5054492;28;20513;-76
2021/12/09 11:34:53;;;;;;;4.30;2.17;;;15.00;59.40;;;;;;5054635;28;20194;-76
2021/12/09 11:40:01;;;;;;;3.63;1.23;;;15.10;59.30;;;;;;5057812;28;20087;-76
2021/12/09 11:42:40;;;;;;;4.55;1.48;;;15.20;58.80;;;;;;5057469;28;20127;-76
2021/12/09 11:45:08;;;;;;;3.47;1.10;;;15.40;58.60;;;;;;5057281;28;20115;-77
2021/12/09 11:47:39;;;;;;;6.32;1.35;;;15.50;57.10;;;;;;5052833;28;20029;-76
2021/12/09 11:50:07;;;;;;;4.00;1.20;;;15.60;57.20;;;;;;5056649;28;20029;-76
2021/12/09 11:52:33;;;;;;;3.38;1.02;;;15.90;56.60;;;;;;5054074;28;20163;-76
2021/12/09 11:55:03;;;;;;;2.70;1.02;;;16.00;57.40;;;;;;5056759;28;20116;-77
2021/12/09 11:57:42;;;;;;;3.85;1.40;;;16.10;57.90;;;;;;5055849;28;20032;-77
2021/12/09 12:11:59;;;;;;;4.25;1.30;;;16.50;55.90;;;;;;5055256;28;20055;-76
2021/12/09 12:14:39;;;;;;;2.85;0.93;;;16.10;56.40;;;;;;5059228;28;20029;-76
2021/12/09 12:20:02;;;;;;;3.67;1.30;;;16.10;56.30;;;;;;5057559;28;20508;-76
2021/12/09 12:28:43;;;;;;;2.92;1.00;;;16.80;55.70;;;;;;4994154;28;20045;-76
2021/12/09 12:34:05;;;;;;;3.08;1.35;;;17.70;53.60;;;;;;4996004;28;20042;-76
2021/12/09 12:40:00;;;;;;;6.25;1.20;;;19.70;49.40;;;;;;4982836;28;20042;-76
2021/12/09 12:51:36;;;;;;;4.10;1.13;;;20.10;47.70;;;;;;4995494;28;20580;-77
2021/12/09 12:54:24;;;;;;;3.85;1.40;;;20.80;48.10;;;;;;4995699;28;20042;-77
2021/12/09 12:56:57;;;;;;;3.90;1.05;;;20.60;46.30;;;;;;4996214;28;20538;-76
2021/12/09 12:59:29;;;;;;;3.55;0.93;;;19.90;47.30;;;;;;4993053;28;20418;-76
2021/12/09 13:02:07;;;;;;;3.00;0.90;;;21.60;46.40;;;;;;4993323;28;20033;-76
2021/12/09 13:05:07;;;;;;;3.25;0.90;;;24.10;44.90;;;;;;5041746;28;20102;-77
2021/12/09 13:08:08;;;;;;;4.22;1.35;;;25.30;42.30;;;;;;5052082;28;20493;-77
2021/12/09 13:19:15;;;;;;;4.72;1.23;;;29.20;37.70;;;;;;5053877;28;20603;-77
2021/12/09 13:21:53;;;;;;;3.75;1.27;;;29.60;37.10;;;;;;5045188;28;20041;-76
2021/12/09 13:24:23;;;;;;;2.78;1.00;;;29.60;35.90;;;;;;5058896;28;20455;-77
2021/12/09 13:27:07;;;;;;;3.50;1.10;;;29.30;35.70;;;;;;5056089;28;20168;-77
2021/12/09 13:29:44;;;;;;;2.35;0.93;;;26.80;36.10;;;;;;5055898;28;20390;-77
2021/12/09 13:47:36;;;;;;;3.35;1.02;;;23.60;39.50;;;;;;5000155;28;20153;-76
2021/12/09 13:49:56;;;;;;;5.15;1.38;;;22.70;41.10;;;;;;5002105;28;20420;-76
2021/12/09 13:55:20;;;;;;;1.95;0.90;;;21.30;42.00;;;;;;5005948;28;20042;-76
2021/12/09 13:57:57;;;;;;;3.80;1.00;;;20.40;44.00;;;;;;5005306;28;20578;-77
2021/12/09 14:00:25;;;;;;;2.45;0.90;;;21.20;43.00;;;;;;5005463;28;20038;-77
2021/12/09 14:03:01;;;;;;;2.53;0.93;;;20.30;43.20;;;;;;5005320;28;20132;-76
2021/12/09 14:05:38;;;;;;;3.05;1.30;;;20.50;43.60;;;;;;5003173;28;20173;-77
2021/12/09 14:08:07;;;;;;;3.75;1.40;;;23.00;41.90;;;;;;5006174;28;20087;-77
2021/12/09 14:10:36;;;;;;;3.55;1.30;;;25.10;39.20;;;;;;4999948;28;20039;-77
2021/12/09 14:13:08;;;;;;;2.67;1.10;;;26.10;37.80;;;;;;5000248;28;20030;-77